sensor_id;sensor_type;location;lat;lon;timestamp;P1;durP1;ratioP1;P2;durP2;ratioP2
19414;SDS011;9843;48.882;12.592;2023-02-05T00:00:47;16.00;;;8.93;;
19414;SDS011;9843;48.882;12.592;2023-02-05T00:03:14;10.73;;;9.27;;
19414;SDS011;9843;48.882;12.592;2023-02-05T00:05:41;11.93;;;8.57;;
19414;SDS011;9843;48.882;12.592;2023-02-05T00:08:08;10.50;;;9.07;;
19414;SDS011;9843;48.882;12.592;2023-02-05T00:10:36;13.33;;;7.97;;
19414;SDS011;9843;48.882;12.592;2023-02-05T00:13:03;9.73;;;7.77;;
19414;SDS011;9843;48.882;12.592;2023-02-05T00:15:33;10.23;;;8.10;;
19414;SDS011;9843;48.882;12.592;2023-02-05T00:18:00;10.17;;;9.23;;
19414;SDS011;9843;48.882;12.592;2023-02-05T00:20:27;10.83;;;8.47;;
19414;SDS011;9843;48.882;12.592;2023-02-05T00:22:54;11.50;;;8.70;;
19414;SDS011;9843;48.882;12.592;2023-02-05T00:25:21;15.93;;;9.07;;
19414;SDS011;9843;48.882;12.592;2023-02-05T00:27:50;13.60;;;8.37;;
19414;SDS011;9843;48.882;12.592;2023-02-05T00:30:17;10.70;;;9.60;;
19414;SDS011;9843;48.882;12.592;2023-02-05T00:32:44;12.90;;;10.47;;
19414;SDS011;9843;48.882;12.592;2023-02-05T00:35:11;13.63;;;10.03;;
19414;SDS011;9843;48.882;12.592;2023-02-05T00:37:38;16.33;;;9.47;;
19414;SDS011;9843;48.882;12.592;2023-02-05T00:40:05;9.87;;;8.87;;
19414;SDS011;9843;48.882;12.592;2023-02-05T00:42:33;13.07;;;10.53;;
19414;SDS011;9843;48.882;12.592;2023-02-05T00:45:01;13.83;;;11.90;;
19414;SDS011;9843;48.882;12.592;2023-02-05T00:47:28;14.80;;;12.17;;
19414;SDS011;9843;48.882;12.592;2023-02-05T00:49:55;19.93;;;14.43;;
19414;SDS011;9843;48.882;12.592;2023-02-05T00:52:22;18.57;;;11.07;;
19414;SDS011;9843;48.882;12.592;2023-02-05T00:54:49;15.23;;;12.23;;
19414;SDS011;9843;48.882;12.592;2023-02-05T00:57:17;20.47;;;14.47;;
19414;SDS011;9843;48.882;12.592;2023-02-05T00:59:48;13.53;;;10.47;;
19414;SDS011;9843;48.882;12.592;2023-02-05T01:02:17;16.63;;;11.57;;
19414;SDS011;9843;48.882;12.592;2023-02-05T01:04:47;12.70;;;10.13;;
19414;SDS011;9843;48.882;12.592;2023-02-05T01:07:14;14.70;;;11.40;;
19414;SDS011;9843;48.882;12.592;2023-02-05T01:09:41;14.90;;;11.13;;
19414;SDS011;9843;48.882;12.592;2023-02-05T01:12:08;11.57;;;10.37;;
19414;SDS011;9843;48.882;12.592;2023-02-05T01:14:35;14.17;;;12.67;;
19414;SDS011;9843;48.882;12.592;2023-02-05T01:17:02;15.73;;;10.87;;
19414;SDS011;9843;48.882;12.592;2023-02-05T01:19:31;12.90;;;11.63;;
19414;SDS011;9843;48.882;12.592;2023-02-05T01:21:58;15.07;;;11.00;;
19414;SDS011;9843;48.882;12.592;2023-02-05T01:26:55;14.87;;;11.97;;
19414;SDS011;9843;48.882;12.592;2023-02-05T01:29:23;17.73;;;12.27;;
19414;SDS011;9843;48.882;12.592;2023-02-05T01:31:50;19.80;;;13.87;;
19414;SDS011;9843;48.882;12.592;2023-02-05T01:34:17;16.70;;;12.27;;
19414;SDS011;9843;48.882;12.592;2023-02-05T01:36:45;18.57;;;14.47;;
19414;SDS011;9843;48.882;12.592;2023-02-05T01:39:12;18.00;;;13.10;;
19414;SDS011;9843;48.882;12.592;2023-02-05T01:41:41;18.60;;;14.07;;
19414;SDS011;9843;48.882;12.592;2023-02-05T01:44:10;15.47;;;12.87;;
19414;SDS011;9843;48.882;12.592;2023-02-05T01:46:38;15.57;;;13.53;;
19414;SDS011;9843;48.882;12.592;2023-02-05T01:49:06;20.90;;;12.60;;
19414;SDS011;9843;48.882;12.592;2023-02-05T01:51:34;27.13;;;13.47;;
19414;SDS011;9843;48.882;12.592;2023-02-05T01:54:03;16.53;;;14.67;;
19414;SDS011;9843;48.882;12.592;2023-02-05T01:56:32;16.60;;;13.70;;
19414;SDS011;9843;48.882;12.592;2023-02-05T01:59:00;20.23;;;14.57;;
19414;SDS011;9843;48.882;12.592;2023-02-05T02:01:28;16.60;;;12.53;;
19414;SDS011;9843;48.882;12.592;2023-02-05T02:03:56;18.77;;;13.53;;
19414;SDS011;9843;48.882;12.592;2023-02-05T02:06:25;16.37;;;12.90;;
19414;SDS011;9843;48.882;12.592;2023-02-05T02:08:52;15.23;;;12.87;;
19414;SDS011;9843;48.882;12.592;2023-02-05T02:11:21;18.77;;;12.10;;
19414;SDS011;9843;48.882;12.592;2023-02-05T02:13:49;14.67;;;13.00;;
19414;SDS011;9843;48.882;12.592;2023-02-05T02:16:17;15.20;;;11.03;;
19414;SDS011;9843;48.882;12.592;2023-02-05T02:18:44;13.30;;;11.83;;
19414;SDS011;9843;48.882;12.592;2023-02-05T02:21:20;20.60;;;14.83;;
19414;SDS011;9843;48.882;12.592;2023-02-05T02:23:52;17.27;;;11.80;;
19414;SDS011;9843;48.882;12.592;2023-02-05T02:26:34;14.87;;;13.37;;
19414;SDS011;9843;48.882;12.592;2023-02-05T02:29:08;17.40;;;14.27;;
19414;SDS011;9843;48.882;12.592;2023-02-05T02:31:39;17.80;;;13.80;;
19414;SDS011;9843;48.882;12.592;2023-02-05T02:34:09;19.50;;;14.43;;
19414;SDS011;9843;48.882;12.592;2023-02-05T02:36:40;16.80;;;12.53;;
19414;SDS011;9843;48.882;12.592;2023-02-05T02:39:09;13.50;;;11.47;;
19414;SDS011;9843;48.882;12.592;2023-02-05T02:41:39;14.37;;;12.20;;
19414;SDS011;9843;48.882;12.592;2023-02-05T02:44:09;17.23;;;12.17;;
19414;SDS011;9843;48.882;12.592;2023-02-05T02:46:39;19.77;;;14.10;;
19414;SDS011;9843;48.882;12.592;2023-02-05T02:49:08;14.93;;;12.87;;
19414;SDS011;9843;48.882;12.592;2023-02-05T02:51:37;13.43;;;11.40;;
19414;SDS011;9843;48.882;12.592;2023-02-05T02:54:07;17.93;;;13.60;;
19414;SDS011;9843;48.882;12.592;2023-02-05T02:56:36;14.20;;;11.50;;
19414;SDS011;9843;48.882;12.592;2023-02-05T02:59:04;12.37;;;11.13;;
19414;SDS011;9843;48.882;12.592;2023-02-05T03:01:33;14.47;;;11.00;;
19414;SDS011;9843;48.882;12.592;2023-02-05T03:04:03;17.10;;;13.00;;
19414;SDS011;9843;48.882;12.592;2023-02-05T03:06:32;12.13;;;10.40;;
19414;SDS011;9843;48.882;12.592;2023-02-05T03:09:01;14.10;;;11.27;;
19414;SDS011;9843;48.882;12.592;2023-02-05T03:11:30;12.83;;;11.53;;
19414;SDS011;9843;48.882;12.592;2023-02-05T03:13:57;13.33;;;11.57;;
19414;SDS011;9843;48.882;12.592;2023-02-05T03:16:25;13.23;;;11.90;;
19414;SDS011;9843;48.882;12.592;2023-02-05T03:18:54;13.77;;;12.37;;
19414;SDS011;9843;48.882;12.592;2023-02-05T03:21:23;14.57;;;11.97;;
19414;SDS011;9843;48.882;12.592;2023-02-05T03:23:51;11.20;;;10.20;;
19414;SDS011;9843;48.882;12.592;2023-02-05T03:26:22;17.37;;;13.40;;
19414;SDS011;9843;48.882;12.592;2023-02-05T03:28:49;12.70;;;11.50;;
19414;SDS011;9843;48.882;12.592;2023-02-05T03:31:16;12.37;;;10.90;;
19414;SDS011;9843;48.882;12.592;2023-02-05T03:33:45;12.93;;;11.57;;
19414;SDS011;9843;48.882;12.592;2023-02-05T03:36:18;16.33;;;12.20;;
19414;SDS011;9843;48.882;12.592;2023-02-05T03:38:49;15.03;;;12.27;;
19414;SDS011;9843;48.882;12.592;2023-02-05T03:41:20;13.23;;;11.83;;
19414;SDS011;9843;48.882;12.592;2023-02-05T03:44:12;14.87;;;12.77;;
19414;SDS011;9843;48.882;12.592;2023-02-05T03:46:43;15.83;;;12.27;;
19414;SDS011;9843;48.882;12.592;2023-02-05T03:49:13;14.90;;;13.33;;
19414;SDS011;9843;48.882;12.592;2023-02-05T03:51:45;13.80;;;10.87;;
19414;SDS011;9843;48.882;12.592;2023-02-05T03:54:15;15.80;;;12.87;;
19414;SDS011;9843;48.882;12.592;2023-02-05T03:56:46;15.13;;;13.53;;
19414;SDS011;9843;48.882;12.592;2023-02-05T03:59:15;13.07;;;11.07;;
19414;SDS011;9843;48.882;12.592;2023-02-05T04:01:44;15.07;;;11.60;;
19414;SDS011;9843;48.882;12.592;2023-02-05T04:04:11;14.10;;;12.63;;
19414;SDS011;9843;48.882;12.592;2023-02-05T04:06:38;14.80;;;11.80;;
19414;SDS011;9843;48.882;12.592;2023-02-05T04:09:08;17.83;;;12.17;;
19414;SDS011;9843;48.882;12.592;2023-02-05T04:11:35;13.97;;;12.00;;
19414;SDS011;9843;48.882;12.592;2023-02-05T04:14:02;15.20;;;11.47;;
19414;SDS011;9843;48.882;12.592;2023-02-05T04:16:30;17.47;;;14.10;;
19414;SDS011;9843;48.882;12.592;2023-02-05T04:18:57;13.40;;;11.17;;
19414;SDS011;9843;48.882;12.592;2023-02-05T04:21:24;13.40;;;11.77;;
19414;SDS011;9843;48.882;12.592;2023-02-05T04:23:51;17.03;;;13.13;;
19414;SDS011;9843;48.882;12.592;2023-02-05T04:26:19;14.23;;;12.83;;
19414;SDS011;9843;48.882;12.592;2023-02-05T04:28:46;13.20;;;11.93;;
19414;SDS011;9843;48.882;12.592;2023-02-05T04:31:13;14.07;;;12.43;;
19414;SDS011;9843;48.882;12.592;2023-02-05T04:33:40;14.50;;;13.07;;
19414;SDS011;9843;48.882;12.592;2023-02-05T04:36:08;16.13;;;13.40;;
19414;SDS011;9843;48.882;12.592;2023-02-05T04:38:35;16.73;;;14.40;;
19414;SDS011;9843;48.882;12.592;2023-02-05T04:41:02;22.13;;;13.47;;
19414;SDS011;9843;48.882;12.592;2023-02-05T04:43:31;20.60;;;15.47;;
19414;SDS011;9843;48.882;12.592;2023-02-05T04:46:03;16.77;;;15.03;;
19414;SDS011;9843;48.882;12.592;2023-02-05T04:48:30;13.23;;;12.03;;
19414;SDS011;9843;48.882;12.592;2023-02-05T04:50:57;15.03;;;13.37;;
19414;SDS011;9843;48.882;12.592;2023-02-05T04:53:24;14.23;;;12.73;;
19414;SDS011;9843;48.882;12.592;2023-02-05T04:55:51;15.47;;;13.83;;
19414;SDS011;9843;48.882;12.592;2023-02-05T04:58:18;16.67;;;13.77;;
19414;SDS011;9843;48.882;12.592;2023-02-05T05:00:47;15.70;;;12.73;;
19414;SDS011;9843;48.882;12.592;2023-02-05T05:03:14;16.53;;;14.23;;
19414;SDS011;9843;48.882;12.592;2023-02-05T05:05:41;16.00;;;13.23;;
19414;SDS011;9843;48.882;12.592;2023-02-05T05:08:08;16.20;;;14.60;;
19414;SDS011;9843;48.882;12.592;2023-02-05T05:10:36;15.00;;;12.83;;
19414;SDS011;9843;48.882;12.592;2023-02-05T05:13:03;16.80;;;13.43;;
19414;SDS011;9843;48.882;12.592;2023-02-05T05:15:30;17.03;;;14.87;;
19414;SDS011;9843;48.882;12.592;2023-02-05T05:17:59;16.13;;;13.40;;
19414;SDS011;9843;48.882;12.592;2023-02-05T05:20:26;16.63;;;13.30;;
19414;SDS011;9843;48.882;12.592;2023-02-05T05:22:53;16.13;;;13.40;;
19414;SDS011;9843;48.882;12.592;2023-02-05T05:25:21;18.70;;;13.80;;
19414;SDS011;9843;48.882;12.592;2023-02-05T05:27:48;16.97;;;12.00;;
19414;SDS011;9843;48.882;12.592;2023-02-05T05:30:15;14.77;;;13.23;;
19414;SDS011;9843;48.882;12.592;2023-02-05T05:32:42;14.33;;;10.93;;
19414;SDS011;9843;48.882;12.592;2023-02-05T05:35:10;13.97;;;12.53;;
19414;SDS011;9843;48.882;12.592;2023-02-05T05:37:37;13.10;;;10.77;;
19414;SDS011;9843;48.882;12.592;2023-02-05T05:40:05;13.57;;;10.33;;
19414;SDS011;9843;48.882;12.592;2023-02-05T05:42:50;12.73;;;10.70;;
19414;SDS011;9843;48.882;12.592;2023-02-05T05:45:34;11.57;;;10.37;;
19414;SDS011;9843;48.882;12.592;2023-02-05T05:48:01;14.43;;;12.93;;
19414;SDS011;9843;48.882;12.592;2023-02-05T05:50:30;17.23;;;13.03;;
19414;SDS011;9843;48.882;12.592;2023-02-05T05:52:57;14.50;;;11.90;;
19414;SDS011;9843;48.882;12.592;2023-02-05T05:55:24;13.07;;;10.33;;
19414;SDS011;9843;48.882;12.592;2023-02-05T05:57:51;11.40;;;10.37;;
19414;SDS011;9843;48.882;12.592;2023-02-05T06:00:18;11.67;;;10.57;;
19414;SDS011;9843;48.882;12.592;2023-02-05T06:02:46;10.83;;;9.57;;
19414;SDS011;9843;48.882;12.592;2023-02-05T06:05:13;9.87;;;8.93;;
19414;SDS011;9843;48.882;12.592;2023-02-05T06:07:41;9.43;;;8.50;;
19414;SDS011;9843;48.882;12.592;2023-02-05T06:10:08;13.20;;;9.00;;
19414;SDS011;9843;48.882;12.592;2023-02-05T06:12:35;10.87;;;9.73;;
19414;SDS011;9843;48.882;12.592;2023-02-05T06:15:03;13.50;;;11.80;;
19414;SDS011;9843;48.882;12.592;2023-02-05T06:17:30;11.77;;;10.57;;
19414;SDS011;9843;48.882;12.592;2023-02-05T06:19:57;11.37;;;10.17;;
19414;SDS011;9843;48.882;12.592;2023-02-05T06:22:24;11.50;;;10.47;;
19414;SDS011;9843;48.882;12.592;2023-02-05T06:24:52;14.40;;;10.63;;
19414;SDS011;9843;48.882;12.592;2023-02-05T06:27:20;12.97;;;10.93;;
19414;SDS011;9843;48.882;12.592;2023-02-05T06:29:47;10.87;;;9.77;;
19414;SDS011;9843;48.882;12.592;2023-02-05T06:32:14;9.90;;;8.90;;
19414;SDS011;9843;48.882;12.592;2023-02-05T06:34:41;16.60;;;10.13;;
19414;SDS011;9843;48.882;12.592;2023-02-05T06:37:08;11.23;;;10.10;;
19414;SDS011;9843;48.882;12.592;2023-02-05T06:39:35;10.90;;;10.00;;
19414;SDS011;9843;48.882;12.592;2023-02-05T06:42:03;14.30;;;10.67;;
19414;SDS011;9843;48.882;12.592;2023-02-05T06:44:31;9.67;;;8.67;;
19414;SDS011;9843;48.882;12.592;2023-02-05T06:46:58;10.87;;;9.77;;
19414;SDS011;9843;48.882;12.592;2023-02-05T06:49:25;15.17;;;10.73;;
19414;SDS011;9843;48.882;12.592;2023-02-05T06:51:52;13.33;;;10.17;;
19414;SDS011;9843;48.882;12.592;2023-02-05T06:54:19;14.43;;;12.93;;
19414;SDS011;9843;48.882;12.592;2023-02-05T06:56:46;15.60;;;12.37;;
19414;SDS011;9843;48.882;12.592;2023-02-05T06:59:15;12.07;;;10.80;;
19414;SDS011;9843;48.882;12.592;2023-02-05T07:01:42;13.63;;;11.50;;
19414;SDS011;9843;48.882;12.592;2023-02-05T07:04:09;12.50;;;11.13;;
19414;SDS011;9843;48.882;12.592;2023-02-05T07:06:36;10.90;;;9.90;;
19414;SDS011;9843;48.882;12.592;2023-02-05T07:09:03;13.40;;;9.77;;
19414;SDS011;9843;48.882;12.592;2023-02-05T07:11:30;10.57;;;9.57;;
19414;SDS011;9843;48.882;12.592;2023-02-05T07:13:58;13.57;;;12.03;;
19414;SDS011;9843;48.882;12.592;2023-02-05T07:16:27;10.80;;;9.80;;
19414;SDS011;9843;48.882;12.592;2023-02-05T07:18:54;15.93;;;11.30;;
19414;SDS011;9843;48.882;12.592;2023-02-05T07:21:21;11.67;;;10.37;;
19414;SDS011;9843;48.882;12.592;2023-02-05T07:23:48;14.30;;;11.07;;
19414;SDS011;9843;48.882;12.592;2023-02-05T07:26:16;15.50;;;11.13;;
19414;SDS011;9843;48.882;12.592;2023-02-05T07:28:43;21.43;;;15.10;;
19414;SDS011;9843;48.882;12.592;2023-02-05T07:31:11;27.63;;;19.63;;
19414;SDS011;9843;48.882;12.592;2023-02-05T07:33:41;31.87;;;20.77;;
19414;SDS011;9843;48.882;12.592;2023-02-05T07:36:09;38.37;;;23.80;;
19414;SDS011;9843;48.882;12.592;2023-02-05T07:38:37;22.93;;;14.97;;
19414;SDS011;9843;48.882;12.592;2023-02-05T07:41:04;21.73;;;15.60;;
19414;SDS011;9843;48.882;12.592;2023-02-05T07:43:32;18.87;;;12.30;;
19414;SDS011;9843;48.882;12.592;2023-02-05T07:46:00;17.17;;;11.77;;
19414;SDS011;9843;48.882;12.592;2023-02-05T07:48:27;15.33;;;12.80;;
19414;SDS011;9843;48.882;12.592;2023-02-05T07:50:56;20.43;;;14.17;;
19414;SDS011;9843;48.882;12.592;2023-02-05T07:53:23;20.37;;;15.53;;
19414;SDS011;9843;48.882;12.592;2023-02-05T07:55:51;20.83;;;15.97;;
19414;SDS011;9843;48.882;12.592;2023-02-05T07:58:19;31.07;;;21.10;;
19414;SDS011;9843;48.882;12.592;2023-02-05T08:00:46;29.90;;;20.40;;
19414;SDS011;9843;48.882;12.592;2023-02-05T08:03:13;32.07;;;21.63;;
19414;SDS011;9843;48.882;12.592;2023-02-05T08:05:40;26.10;;;19.33;;
19414;SDS011;9843;48.882;12.592;2023-02-05T08:08:09;38.40;;;20.70;;
19414;SDS011;9843;48.882;12.592;2023-02-05T08:10:36;24.03;;;15.43;;
19414;SDS011;9843;48.882;12.592;2023-02-05T08:13:03;32.50;;;19.60;;
19414;SDS011;9843;48.882;12.592;2023-02-05T08:15:31;22.50;;;16.67;;
19414;SDS011;9843;48.882;12.592;2023-02-05T08:17:58;17.80;;;14.23;;
19414;SDS011;9843;48.882;12.592;2023-02-05T08:20:25;13.53;;;11.77;;
19414;SDS011;9843;48.882;12.592;2023-02-05T08:22:52;12.10;;;10.00;;
19414;SDS011;9843;48.882;12.592;2023-02-05T08:25:20;13.50;;;11.37;;
19414;SDS011;9843;48.882;12.592;2023-02-05T08:27:47;15.40;;;11.27;;
19414;SDS011;9843;48.882;12.592;2023-02-05T08:30:15;15.87;;;12.20;;
19414;SDS011;9843;48.882;12.592;2023-02-05T08:32:45;10.53;;;9.40;;
19414;SDS011;9843;48.882;12.592;2023-02-05T08:35:12;17.87;;;13.87;;
19414;SDS011;9843;48.882;12.592;2023-02-05T08:37:40;18.40;;;13.57;;
19414;SDS011;9843;48.882;12.592;2023-02-05T08:40:07;22.40;;;13.50;;
19414;SDS011;9843;48.882;12.592;2023-02-05T08:42:36;15.53;;;12.07;;
19414;SDS011;9843;48.882;12.592;2023-02-05T08:45:03;12.03;;;10.33;;
19414;SDS011;9843;48.882;12.592;2023-02-05T08:47:33;18.37;;;13.03;;
19414;SDS011;9843;48.882;12.592;2023-02-05T08:50:00;14.50;;;12.40;;
19414;SDS011;9843;48.882;12.592;2023-02-05T08:52:27;14.80;;;10.90;;
19414;SDS011;9843;48.882;12.592;2023-02-05T08:54:54;12.17;;;10.97;;
19414;SDS011;9843;48.882;12.592;2023-02-05T08:57:21;12.90;;;10.00;;
19414;SDS011;9843;48.882;12.592;2023-02-05T08:59:50;11.30;;;10.17;;
19414;SDS011;9843;48.882;12.592;2023-02-05T09:02:17;11.77;;;10.07;;
19414;SDS011;9843;48.882;12.592;2023-02-05T09:04:44;11.57;;;10.40;;
19414;SDS011;9843;48.882;12.592;2023-02-05T09:07:11;15.17;;;12.17;;
19414;SDS011;9843;48.882;12.592;2023-02-05T09:09:38;14.90;;;12.03;;
19414;SDS011;9843;48.882;12.592;2023-02-05T09:12:06;17.43;;;11.83;;
19414;SDS011;9843;48.882;12.592;2023-02-05T09:14:34;15.33;;;10.33;;
19414;SDS011;9843;48.882;12.592;2023-02-05T09:17:03;13.20;;;11.77;;
19414;SDS011;9843;48.882;12.592;2023-02-05T09:19:32;10.70;;;9.77;;
19414;SDS011;9843;48.882;12.592;2023-02-05T09:21:59;10.83;;;9.70;;
19414;SDS011;9843;48.882;12.592;2023-02-05T09:24:26;11.53;;;9.10;;
19414;SDS011;9843;48.882;12.592;2023-02-05T09:26:54;11.83;;;10.40;;
19414;SDS011;9843;48.882;12.592;2023-02-05T09:29:21;11.77;;;9.50;;
19414;SDS011;9843;48.882;12.592;2023-02-05T09:31:48;8.83;;;7.67;;
19414;SDS011;9843;48.882;12.592;2023-02-05T09:34:16;7.73;;;6.13;;
19414;SDS011;9843;48.882;12.592;2023-02-05T09:36:43;7.47;;;6.87;;
19414;SDS011;9843;48.882;12.592;2023-02-05T09:39:11;5.00;;;4.60;;
19414;SDS011;9843;48.882;12.592;2023-02-05T09:41:38;5.53;;;4.20;;
19414;SDS011;9843;48.882;12.592;2023-02-05T09:44:10;5.00;;;4.57;;
19414;SDS011;9843;48.882;12.592;2023-02-05T09:46:43;12.27;;;6.93;;
19414;SDS011;9843;48.882;12.592;2023-02-05T09:49:13;6.17;;;3.77;;
19414;SDS011;9843;48.882;12.592;2023-02-05T09:51:44;5.27;;;4.40;;
19414;SDS011;9843;48.882;12.592;2023-02-05T09:54:14;5.10;;;3.60;;
19414;SDS011;9843;48.882;12.592;2023-02-05T09:56:42;5.80;;;4.10;;
19414;SDS011;9843;48.882;12.592;2023-02-05T09:59:10;4.57;;;3.30;;
19414;SDS011;9843;48.882;12.592;2023-02-05T10:01:41;6.13;;;4.63;;
19414;SDS011;9843;48.882;12.592;2023-02-05T10:04:13;4.63;;;4.17;;
19414;SDS011;9843;48.882;12.592;2023-02-05T10:07:04;4.07;;;3.67;;
19414;SDS011;9843;48.882;12.592;2023-02-05T10:09:49;7.90;;;4.90;;
19414;SDS011;9843;48.882;12.592;2023-02-05T10:12:21;5.63;;;4.60;;
19414;SDS011;9843;48.882;12.592;2023-02-05T10:14:53;4.07;;;3.77;;
19414;SDS011;9843;48.882;12.592;2023-02-05T10:17:27;5.70;;;3.93;;
19414;SDS011;9843;48.882;12.592;2023-02-05T10:20:02;4.60;;;3.97;;
19414;SDS011;9843;48.882;12.592;2023-02-05T10:22:33;3.73;;;3.37;;
19414;SDS011;9843;48.882;12.592;2023-02-05T10:25:11;4.40;;;4.00;;
19414;SDS011;9843;48.882;12.592;2023-02-05T10:27:45;4.37;;;4.03;;
19414;SDS011;9843;48.882;12.592;2023-02-05T10:30:15;5.07;;;4.63;;
19414;SDS011;9843;48.882;12.592;2023-02-05T10:32:47;5.20;;;4.70;;
19414;SDS011;9843;48.882;12.592;2023-02-05T10:35:21;6.97;;;5.33;;
19414;SDS011;9843;48.882;12.592;2023-02-05T10:37:51;5.20;;;4.17;;
19414;SDS011;9843;48.882;12.592;2023-02-05T10:40:20;4.40;;;4.00;;
19414;SDS011;9843;48.882;12.592;2023-02-05T10:42:48;5.03;;;4.53;;
19414;SDS011;9843;48.882;12.592;2023-02-05T10:45:17;4.80;;;4.40;;
19414;SDS011;9843;48.882;12.592;2023-02-05T10:47:48;5.53;;;5.03;;
19414;SDS011;9843;48.882;12.592;2023-02-05T10:50:18;8.27;;;5.40;;
19414;SDS011;9843;48.882;12.592;2023-02-05T10:52:48;7.37;;;5.70;;
19414;SDS011;9843;48.882;12.592;2023-02-05T10:55:17;6.17;;;5.63;;
19414;SDS011;9843;48.882;12.592;2023-02-05T10:57:44;6.70;;;6.10;;
19414;SDS011;9843;48.882;12.592;2023-02-05T11:00:12;10.10;;;6.50;;
19414;SDS011;9843;48.882;12.592;2023-02-05T11:02:41;6.60;;;6.00;;
19414;SDS011;9843;48.882;12.592;2023-02-05T11:05:13;6.67;;;5.97;;
19414;SDS011;9843;48.882;12.592;2023-02-05T11:07:42;6.33;;;5.80;;
19414;SDS011;9843;48.882;12.592;2023-02-05T11:10:14;7.20;;;6.53;;
19414;SDS011;9843;48.882;12.592;2023-02-05T11:12:43;7.47;;;5.90;;
19414;SDS011;9843;48.882;12.592;2023-02-05T11:15:18;5.90;;;5.50;;
19414;SDS011;9843;48.882;12.592;2023-02-05T11:17:48;8.80;;;5.00;;
19414;SDS011;9843;48.882;12.592;2023-02-05T11:20:29;6.80;;;6.20;;
19414;SDS011;9843;48.882;12.592;2023-02-05T11:25:48;8.23;;;6.67;;
19414;SDS011;9843;48.882;12.592;2023-02-05T11:28:19;6.37;;;5.77;;
19414;SDS011;9843;48.882;12.592;2023-02-05T11:30:47;6.07;;;5.53;;
19414;SDS011;9843;48.882;12.592;2023-02-05T11:33:16;5.70;;;5.17;;
19414;SDS011;9843;48.882;12.592;2023-02-05T11:35:48;5.93;;;5.47;;
19414;SDS011;9843;48.882;12.592;2023-02-05T11:38:18;5.70;;;5.20;;
19414;SDS011;9843;48.882;12.592;2023-02-05T11:40:49;6.37;;;5.33;;
19414;SDS011;9843;48.882;12.592;2023-02-05T11:43:19;6.40;;;5.50;;
19414;SDS011;9843;48.882;12.592;2023-02-05T11:45:49;7.90;;;6.67;;
19414;SDS011;9843;48.882;12.592;2023-02-05T11:48:21;5.70;;;5.20;;
19414;SDS011;9843;48.882;12.592;2023-02-05T11:50:52;7.90;;;6.27;;
19414;SDS011;9843;48.882;12.592;2023-02-05T11:53:19;10.10;;;6.77;;
19414;SDS011;9843;48.882;12.592;2023-02-05T11:55:50;5.90;;;5.30;;
19414;SDS011;9843;48.882;12.592;2023-02-05T11:58:21;6.67;;;5.57;;
19414;SDS011;9843;48.882;12.592;2023-02-05T12:00:52;8.27;;;7.27;;
19414;SDS011;9843;48.882;12.592;2023-02-05T12:03:22;6.70;;;6.20;;
19414;SDS011;9843;48.882;12.592;2023-02-05T12:05:51;5.43;;;4.93;;
19414;SDS011;9843;48.882;12.592;2023-02-05T12:08:24;8.30;;;7.60;;
19414;SDS011;9843;48.882;12.592;2023-02-05T12:10:55;6.40;;;5.87;;
19414;SDS011;9843;48.882;12.592;2023-02-05T12:13:34;11.53;;;6.40;;
19414;SDS011;9843;48.882;12.592;2023-02-05T12:16:11;7.73;;;7.07;;
19414;SDS011;9843;48.882;12.592;2023-02-05T12:18:43;8.17;;;5.67;;
19414;SDS011;9843;48.882;12.592;2023-02-05T12:21:14;7.43;;;5.97;;
19414;SDS011;9843;48.882;12.592;2023-02-05T12:23:51;7.93;;;6.13;;
19414;SDS011;9843;48.882;12.592;2023-02-05T12:26:24;6.90;;;6.27;;
19414;SDS011;9843;48.882;12.592;2023-02-05T12:28:56;6.57;;;5.87;;
19414;SDS011;9843;48.882;12.592;2023-02-05T12:31:28;8.47;;;7.67;;
19414;SDS011;9843;48.882;12.592;2023-02-05T12:34:00;7.63;;;5.97;;
19414;SDS011;9843;48.882;12.592;2023-02-05T12:36:41;7.03;;;6.17;;
19414;SDS011;9843;48.882;12.592;2023-02-05T12:39:16;6.93;;;6.37;;
19414;SDS011;9843;48.882;12.592;2023-02-05T12:41:47;9.13;;;5.90;;
19414;SDS011;9843;48.882;12.592;2023-02-05T12:44:22;7.50;;;6.80;;
19414;SDS011;9843;48.882;12.592;2023-02-05T12:46:55;5.57;;;5.17;;
19414;SDS011;9843;48.882;12.592;2023-02-05T12:49:36;7.33;;;6.73;;
19414;SDS011;9843;48.882;12.592;2023-02-05T12:52:09;6.77;;;6.27;;
19414;SDS011;9843;48.882;12.592;2023-02-05T12:54:42;9.37;;;6.33;;
19414;SDS011;9843;48.882;12.592;2023-02-05T12:57:12;5.73;;;5.23;;
19414;SDS011;9843;48.882;12.592;2023-02-05T12:59:41;5.23;;;4.83;;
19414;SDS011;9843;48.882;12.592;2023-02-05T13:02:13;7.13;;;5.63;;
19414;SDS011;9843;48.882;12.592;2023-02-05T13:04:42;5.63;;;5.13;;
19414;SDS011;9843;48.882;12.592;2023-02-05T13:07:11;15.37;;;8.07;;
19414;SDS011;9843;48.882;12.592;2023-02-05T13:09:43;6.47;;;5.27;;
19414;SDS011;9843;48.882;12.592;2023-02-05T13:12:14;6.40;;;5.87;;
19414;SDS011;9843;48.882;12.592;2023-02-05T13:14:43;5.40;;;4.87;;
19414;SDS011;9843;48.882;12.592;2023-02-05T13:17:14;8.17;;;7.37;;
19414;SDS011;9843;48.882;12.592;2023-02-05T13:19:44;6.33;;;5.80;;
19414;SDS011;9843;48.882;12.592;2023-02-05T13:22:15;6.57;;;5.73;;
19414;SDS011;9843;48.882;12.592;2023-02-05T13:25:02;7.43;;;6.13;;
19414;SDS011;9843;48.882;12.592;2023-02-05T13:28:09;7.80;;;5.70;;
19414;SDS011;9843;48.882;12.592;2023-02-05T13:30:58;5.17;;;4.77;;
19414;SDS011;9843;48.882;12.592;2023-02-05T13:33:27;5.80;;;5.40;;
19414;SDS011;9843;48.882;12.592;2023-02-05T13:35:56;6.13;;;5.40;;
19414;SDS011;9843;48.882;12.592;2023-02-05T13:38:33;5.77;;;5.40;;
19414;SDS011;9843;48.882;12.592;2023-02-05T13:41:11;9.53;;;7.20;;
19414;SDS011;9843;48.882;12.592;2023-02-05T13:43:47;5.77;;;5.27;;
19414;SDS011;9843;48.882;12.592;2023-02-05T13:46:20;5.77;;;5.23;;
19414;SDS011;9843;48.882;12.592;2023-02-05T13:48:55;7.00;;;6.37;;
19414;SDS011;9843;48.882;12.592;2023-02-05T13:51:30;6.43;;;5.93;;
19414;SDS011;9843;48.882;12.592;2023-02-05T13:54:09;8.37;;;7.27;;
19414;SDS011;9843;48.882;12.592;2023-02-05T13:56:45;7.60;;;6.33;;
19414;SDS011;9843;48.882;12.592;2023-02-05T13:59:14;6.53;;;6.10;;
19414;SDS011;9843;48.882;12.592;2023-02-05T14:01:47;6.70;;;6.07;;
19414;SDS011;9843;48.882;12.592;2023-02-05T14:04:18;7.53;;;6.73;;
19414;SDS011;9843;48.882;12.592;2023-02-05T14:06:48;6.53;;;6.13;;
19414;SDS011;9843;48.882;12.592;2023-02-05T14:09:21;6.77;;;6.13;;
19414;SDS011;9843;48.882;12.592;2023-02-05T14:11:51;7.13;;;6.40;;
19414;SDS011;9843;48.882;12.592;2023-02-05T14:14:26;5.70;;;5.20;;
19414;SDS011;9843;48.882;12.592;2023-02-05T14:16:56;6.20;;;5.67;;
19414;SDS011;9843;48.882;12.592;2023-02-05T14:19:24;5.30;;;4.93;;
19414;SDS011;9843;48.882;12.592;2023-02-05T14:22:02;10.50;;;6.67;;
19414;SDS011;9843;48.882;12.592;2023-02-05T14:35:32;9.90;;;8.37;;
19414;SDS011;9843;48.882;12.592;2023-02-05T14:38:13;6.77;;;6.17;;
19414;SDS011;9843;48.882;12.592;2023-02-05T14:40:41;6.23;;;5.67;;
19414;SDS011;9843;48.882;12.592;2023-02-05T14:43:11;5.70;;;5.20;;
19414;SDS011;9843;48.882;12.592;2023-02-05T14:45:43;5.17;;;4.77;;
19414;SDS011;9843;48.882;12.592;2023-02-05T14:48:16;5.70;;;5.20;;
19414;SDS011;9843;48.882;12.592;2023-02-05T14:50:46;7.20;;;5.80;;
19414;SDS011;9843;48.882;12.592;2023-02-05T14:53:25;8.10;;;6.93;;
19414;SDS011;9843;48.882;12.592;2023-02-05T14:55:53;8.93;;;5.50;;
19414;SDS011;9843;48.882;12.592;2023-02-05T14:58:22;6.67;;;5.93;;
19414;SDS011;9843;48.882;12.592;2023-02-05T15:00:51;6.50;;;5.83;;